Time;durP1;ratioP1;P1;durP2;ratioP2;P2;SDS_P1;SDS_P2;PMS_P1;PMS_P2;Temp;Humidity;BMP_temperature;BMP_pressure;BME280_temperature;BME280_humidity;BME280_pressure;Samples;Min_cycle;Max_cycle;Signal;HPM_P1;HPM_P2
2022/08/11 00:00:12;;;;;;;3.10;1.50;;;;;;;18.92;100.00;94893.66;5019606;28;20034;-87
2022/08/11 00:02:39;;;;;;;1.83;1.42;;;;;;;18.79;100.00;94901.44;5019226;28;20403;-87
2022/08/11 00:05:08;;;;;;;5.32;1.30;;;;;;;18.89;100.00;94903.03;5003818;28;20034;-87
2022/08/11 00:07:41;;;;;;;2.15;1.20;;;;;;;18.93;100.00;94901.31;5019775;28;20029;-87
2022/08/11 00:10:10;;;;;;;3.90;1.60;;;;;;;18.85;100.00;94896.75;5019606;28;20034;-87
2022/08/11 00:12:35;;;;;;;6.05;2.20;;;;;;;18.79;100.00;94893.47;5003180;28;20031;-87
2022/08/11 00:15:01;;;;;;;5.70;1.60;;;;;;;18.42;100.00;94902.66;5002795;28;20327;-87
2022/08/11 00:17:32;;;;;;;2.05;1.27;;;;;;;18.31;100.00;94902.13;5019037;28;20032;-87
2022/08/11 00:20:08;;;;;;;2.95;1.75;;;;;;;18.22;100.00;94899.41;5019342;28;20069;-87
2022/08/11 00:22:34;;;;;;;5.45;1.70;;;;;;;18.36;100.00;94901.97;5003053;28;20033;-88
2022/08/11 00:25:27;;;;;;;3.65;1.80;;;;;;;18.43;100.00;94905.00;5003336;28;20036;-87
2022/08/11 00:27:52;;;;;;;4.75;1.33;;;;;;;18.37;100.00;94898.28;5019650;28;20061;-87
2022/08/11 00:30:18;;;;;;;2.60;1.70;;;;;;;18.40;100.00;94902.97;5015455;28;20025;-88
2022/08/11 00:32:52;;;;;;;5.53;1.60;;;;;;;18.51;100.00;94892.88;5020485;28;20113;-87
2022/08/11 00:35:26;;;;;;;4.38;2.13;;;;;;;18.58;100.00;94885.28;5003278;28;20493;-87
2022/08/11 00:37:53;;;;;;;3.60;1.92;;;;;;;18.47;100.00;94894.56;5032712;28;20022;-87
2022/08/11 00:40:42;;;;;;;2.92;1.70;;;;;;;18.43;100.00;94890.94;5002714;28;20041;-87
2022/08/11 00:43:10;;;;;;;2.28;1.63;;;;;;;18.42;100.00;94902.66;5002073;28;20051;-87
2022/08/11 00:45:42;;;;;;;3.20;1.60;;;;;;;18.47;100.00;94884.72;5019714;28;20350;-87
2022/08/11 00:48:22;;;;;;;2.58;1.38;;;;;;;18.68;100.00;94883.41;5002584;28;20128;-88
2022/08/11 00:51:09;;;;;;;2.97;1.63;;;;;;;18.75;100.00;94887.19;5019681;28;20034;-88
2022/08/11 00:54:05;;;;;;;3.60;1.90;;;;;;;18.57;100.00;94893.53;5019429;28;20025;-88
2022/08/11 00:56:52;;;;;;;5.10;2.00;;;;;;;18.42;100.00;94886.72;5002520;28;20033;-88
2022/08/11 00:59:48;;;;;;;7.80;1.90;;;;;;;18.35;100.00;94881.84;5017675;28;20068;-87
2022/08/11 01:02:15;;;;;;;3.50;2.05;;;;;;;18.20;100.00;94881.16;5014683;28;20037;-87
2022/08/11 01:05:00;;;;;;;3.10;1.70;;;;;;;18.42;100.00;94887.53;5002017;28;20386;-87
2022/08/11 01:07:41;;;;;;;4.10;1.83;;;;;;;18.06;100.00;94883.88;5019360;28;20099;-87
2022/08/11 01:10:28;;;;;;;3.95;1.90;;;;;;;17.99;100.00;94880.81;5018116;28;20025;-87
2022/08/11 01:13:15;;;;;;;4.18;1.77;;;;;;;18.19;100.00;94881.47;5019134;28;20026;-87
2022/08/11 01:16:10;;;;;;;3.92;1.60;;;;;;;18.28;100.00;94871.66;5019124;28;20485;-87
2022/08/11 01:19:03;;;;;;;4.90;2.00;;;;;;;17.88;100.00;94882.16;5002364;28;20037;-87
2022/08/11 01:21:48;;;;;;;4.15;2.00;;;;;;;17.69;100.00;94880.44;5018088;28;20037;-87
2022/08/11 01:24:36;;;;;;;4.25;1.98;;;;;;;18.04;100.00;94883.41;5018013;28;20034;-87
2022/08/11 01:27:32;;;;;;;2.33;1.80;;;;;;;18.17;100.00;94887.06;5017966;28;20128;-87
2022/08/11 01:30:19;;;;;;;4.95;1.80;;;;;;;17.98;100.00;94886.44;5018894;28;20061;-87
2022/08/11 01:33:18;;;;;;;8.57;1.85;;;;;;;17.80;100.00;94886.31;5017795;28;20041;-87
2022/08/11 01:36:15;;;;;;;3.35;1.88;;;;;;;17.87;100.00;94889.31;5017831;28;20431;-87
2022/08/11 01:39:12;;;;;;;3.05;1.52;;;;;;;17.84;100.00;94884.63;5018712;28;20112;-87
2022/08/11 01:44:51;;;;;;;;;;;;;;;17.59;100.00;94884.13;5007897;28;20356;-87
2022/08/11 01:47:50;;;;;;;5.20;1.60;;;;;;;17.75;100.00;94875.81;5018594;28;20303;-87
2022/08/11 01:50:35;;;;;;;3.55;1.88;;;;;;;17.45;100.00;94883.38;5018490;28;20061;-87
2022/08/11 01:53:26;;;;;;;4.30;1.80;;;;;;;17.63;100.00;94871.84;5018687;28;20439;-87
2022/08/11 01:56:09;;;;;;;4.97;1.88;;;;;;;17.66;100.00;94878.41;5017473;28;20423;-87
2022/08/11 01:58:45;;;;;;;2.78;1.52;;;;;;;17.61;100.00;94881.19;5017411;28;20040;-87
2022/08/11 02:01:19;;;;;;;2.25;1.65;;;;;;;17.83;100.00;94884.91;5001076;28;20037;-87
2022/08/11 02:04:02;;;;;;;3.45;1.73;;;;;;;17.86;100.00;94884.31;5018257;28;20421;-87
2022/08/11 02:06:55;;;;;;;5.30;2.03;;;;;;;17.78;100.00;94883.16;5018284;28;20034;-87
2022/08/11 02:09:48;;;;;;;7.32;2.00;;;;;;;17.86;100.00;94882.47;5018485;28;20018;-87
2022/08/11 02:12:52;;;;;;;4.03;1.83;;;;;;;17.77;100.00;94878.94;4997121;28;20041;-87
2022/08/11 02:15:27;;;;;;;5.15;1.63;;;;;;;17.78;100.00;94875.22;5017765;28;20038;-87
2022/08/11 02:17:59;;;;;;;4.25;1.75;;;;;;;17.96;100.00;94873.47;5017075;28;20057;-87
2022/08/11 02:26:19;;;;;;;4.28;2.30;;;;;;;17.71;100.00;94858.97;5008854;28;20087;-87
2022/08/11 02:29:02;;;;;;;;;;;;;;;17.66;100.00;94858.00;5017413;28;20022;-88
2022/08/11 02:34:24;;;;;;;4.03;1.70;;;;;;;17.65;100.00;94859.09;5017629;28;20399;-87
2022/08/11 02:37:15;;;;;;;3.08;1.70;;;;;;;17.78;100.00;94862.75;5000693;28;20144;-87
2022/08/11 02:40:30;;;;;;;2.40;1.52;;;;;;;17.92;100.00;94867.22;5000801;28;20037;-87
2022/08/11 02:43:10;;;;;;;3.97;1.83;;;;;;;17.86;100.00;94855.97;4996267;28;20359;-87
2022/08/11 02:45:47;;;;;;;3.88;2.20;;;;;;;17.85;100.00;94850.94;5000281;28;20076;-87
2022/08/11 02:52:15;;;;;;;8.32;2.08;;;;;;;17.51;100.00;94840.59;5017452;28;20041;-87
2022/08/11 02:54:54;;;;;;;5.10;1.70;;;;;;;17.87;100.00;94846.91;5035214;28;20021;-87
2022/08/11 02:57:28;;;;;;;3.88;1.83;;;;;;;17.62;100.00;94843.00;5036090;28;20033;-87
2022/08/11 03:00:14;;;;;;;4.20;1.75;;;;;;;17.19;100.00;94838.91;5029772;28;20021;-87
2022/08/11 03:02:57;;;;;;;4.70;2.10;;;;;;;16.99;100.00;94840.91;5026121;28;20017;-87
2022/08/11 03:05:53;;;;;;;5.05;1.83;;;;;;;16.81;100.00;94842.53;5036979;28;20446;-87
2022/08/11 03:08:51;;;;;;;3.53;2.03;;;;;;;16.69;100.00;94835.09;5000187;28;20017;-87
2022/08/11 03:17:49;;;;;;;6.60;2.47;;;;;;;16.71;100.00;94846.19;5016824;28;20065;-87
2022/08/11 03:20:38;;;;;;;6.78;2.25;;;;;;;16.74;100.00;94840.28;4999815;28;20125;-87
2022/08/11 03:23:14;;;;;;;2.17;1.55;;;;;;;16.92;100.00;94843.13;5015369;28;20160;-87
2022/08/11 03:25:50;;;;;;;2.88;2.10;;;;;;;16.79;100.00;94842.06;4999990;28;20435;-87
2022/08/11 03:28:28;;;;;;;3.33;2.03;;;;;;;16.99;100.00;94845.38;5016042;28;20018;-87
2022/08/11 03:31:09;;;;;;;4.18;1.85;;;;;;;17.10;100.00;94847.56;5016849;28;20026;-87
2022/08/11 03:34:02;;;;;;;4.03;1.92;;;;;;;17.12;100.00;94844.59;5024908;28;20036;-87
2022/08/11 03:36:49;;;;;;;3.85;2.10;;;;;;;17.33;100.00;94837.00;5021742;28;20063;-87
2022/08/11 03:39:53;;;;;;;4.95;1.92;;;;;;;17.26;100.00;94838.47;5036535;28;20347;-87
2022/08/11 03:42:52;;;;;;;5.20;1.88;;;;;;;17.20;100.00;94848.41;5036519;28;20029;-87
2022/08/11 03:45:35;;;;;;;6.93;2.13;;;;;;;17.36;100.00;94844.38;5035450;28;20026;-87
2022/08/11 03:48:13;;;;;;;;;;;;;;;17.19;100.00;94844.97;5036060;28;20036;-87
2022/08/11 03:50:50;;;;;;;4.82;2.05;;;;;;;17.35;100.00;94845.41;5035629;28;20295;-88
2022/08/11 03:53:27;;;;;;;2.78;2.00;;;;;;;17.41;100.00;94848.75;5036346;28;20037;-87
2022/08/11 03:56:26;;;;;;;4.97;2.08;;;;;;;16.95;100.00;94845.97;5035879;28;20030;-87
2022/08/11 03:59:11;;;;;;;5.80;2.17;;;;;;;16.71;100.00;94840.88;5036360;28;20033;-87
2022/08/11 04:02:03;;;;;;;3.08;1.80;;;;;;;16.64;100.00;94843.13;5036416;28;20420;-87
2022/08/11 04:05:15;;;;;;;3.95;2.40;;;;;;;16.61;100.00;94835.78;5019030;28;20347;-87
2022/08/11 04:08:08;;;;;;;8.25;1.85;;;;;;;16.82;100.00;94834.31;5035380;28;20442;-87
2022/08/11 04:10:53;;;;;;;3.33;2.05;;;;;;;16.73;100.00;94833.44;5035365;28;20029;-87
2022/08/11 04:13:37;;;;;;;5.25;2.72;;;;;;;16.83;100.00;94832.44;5019272;28;20057;-87
2022/08/11 04:16:29;;;;;;;3.65;1.98;;;;;;;17.01;100.00;94824.72;5036302;28;20477;-87
2022/08/11 04:19:33;;;;;;;5.30;2.00;;;;;;;17.16;100.00;94842.13;5035037;28;20079;-87
2022/08/11 04:22:22;;;;;;;6.43;2.15;;;;;;;17.13;100.00;94834.81;5028641;28;20497;-87
2022/08/11 04:24:51;;;;;;;4.57;1.80;;;;;;;17.33;100.00;94829.06;5036086;28;20176;-87
2022/08/11 04:27:41;;;;;;;4.65;1.77;;;;;;;17.43;100.00;94833.38;5036182;28;20087;-87
2022/08/11 04:30:13;;;;;;;9.32;2.05;;;;;;;17.42;100.00;94831.00;5036453;28;20071;-87
2022/08/11 04:32:57;;;;;;;3.83;2.00;;;;;;;17.47;100.00;94830.88;5035063;28;20419;-87
2022/08/11 04:35:44;;;;;;;3.45;2.03;;;;;;;17.46;100.00;94829.31;5038771;28;20029;-87
2022/08/11 04:38:28;;;;;;;3.72;2.00;;;;;;;17.33;100.00;94831.69;5036502;28;20080;-86
2022/08/11 04:41:25;;;;;;;5.10;2.13;;;;;;;17.31;100.00;94825.16;5029941;28;20029;-87
2022/08/11 04:44:27;;;;;;;4.65;2.40;;;;;;;17.13;100.00;94835.56;5021382;28;20033;-87
2022/08/11 04:47:09;;;;;;;3.88;1.67;;;;;;;17.34;100.00;94838.56;5019726;28;20041;-87
2022/08/11 05:02:39;;;;;;;3.08;1.70;;;;;;;17.17;100.00;94849.00;5019565;28;20347;-87
2022/08/11 05:05:30;;;;;;;8.18;2.13;;;;;;;17.59;100.00;94851.56;5019450;28;20034;-86
2022/08/11 05:08:26;;;;;;;4.63;1.98;;;;;;;17.44;100.00;94855.31;5002159;28;20029;-86
2022/08/11 05:11:37;;;;;;;8.07;2.00;;;;;;;17.30;100.00;94856.13;5019344;28;20037;-87
2022/08/11 05:36:51;;;;;;;6.00;1.80;;;;;;;19.07;100.00;94860.63;5018244;28;20347;-87
2022/08/11 05:58:43;;;;;;;26.45;4.43;;;;;;;18.79;100.00;94863.47;5017578;28;20474;-87
2022/08/11 06:01:20;;;;;;;16.60;4.00;;;;;;;19.07;100.00;94864.03;5017242;28;20037;-87
2022/08/11 06:06:34;;;;;;;4.75;2.00;;;;;;;19.92;100.00;94853.34;5017588;28;20129;-87
2022/08/11 06:08:59;;;;;;;6.20;2.28;;;;;;;19.69;100.00;94858.03;5017384;28;20403;-87
2022/08/11 06:11:28;;;;;;;5.25;2.15;;;;;;;20.42;100.00;94857.31;5017094;28;20336;-86
2022/08/11 06:13:55;;;;;;;3.40;1.80;;;;;;;21.00;100.00;94854.28;5016783;28;20025;-86
2022/08/11 06:16:24;;;;;;;3.35;1.98;;;;;;;21.40;100.00;94863.75;5020904;28;20032;-86
2022/08/11 06:18:50;;;;;;;2.95;1.88;;;;;;;21.30;100.00;94858.78;5036612;28;20132;-86
2022/08/11 06:21:17;;;;;;;5.07;2.10;;;;;;;20.85;100.00;94857.50;5024840;28;20506;-86
2022/08/11 06:23:43;;;;;;;5.07;1.77;;;;;;;21.49;100.00;94863.69;5036536;28;20059;-86
2022/08/11 06:26:10;;;;;;;5.40;2.20;;;;;;;21.55;100.00;94865.06;5036526;28;20060;-86
2022/08/11 06:28:37;;;;;;;6.43;1.77;;;;;;;21.44;100.00;94854.00;5036519;28;20017;-86
2022/08/11 06:31:22;;;;;;;4.75;2.13;;;;;;;21.78;100.00;94862.06;5036420;28;20029;-86
2022/08/11 06:34:10;;;;;;;48.65;5.88;;;;;;;21.46;100.00;94861.66;5020350;28;20401;-86
2022/08/11 06:37:13;;;;;;;4.10;1.70;;;;;;;21.91;100.00;94865.59;5036488;28;20031;-86
2022/08/11 06:39:48;;;;;;;3.83;2.05;;;;;;;22.36;100.00;94857.94;5018278;28;20041;-86
2022/08/11 06:42:40;;;;;;;12.48;1.98;;;;;;;22.44;100.00;94855.16;5036564;28;20021;-86
2022/08/11 06:45:18;;;;;;;5.13;2.15;;;;;;;22.25;100.00;94868.25;5029868;28;20049;-87
2022/08/11 06:47:48;;;;;;;8.88;2.15;;;;;;;21.72;100.00;94872.16;5037800;28;20054;-86
2022/08/11 06:53:05;;;;;;;3.15;1.83;;;;;;;21.63;100.00;94863.44;5037049;28;20474;-87
2022/08/11 07:01:12;;;;;;;3.85;2.00;;;;;;;21.86;100.00;94869.22;5022177;28;20084;-86
2022/08/11 07:03:42;;;;;;;4.00;1.83;;;;;;;22.22;100.00;94867.03;5000075;28;20033;-86
2022/08/11 07:06:20;;;;;;;5.55;1.83;;;;;;;22.25;100.00;94869.03;5017321;28;20117;-86
2022/08/11 07:28:54;;;;;;;2.30;1.58;;;;;;;22.18;100.00;94868.81;5015991;28;20351;-86
2022/08/11 07:28:54;;;;;;;4.35;2.20;;;;;;;21.75;100.00;94868.06;5015909;28;20072;-87
2022/08/11 07:31:36;;;;;;;3.65;2.05;;;;;;;22.55;100.00;94860.13;5016015;28;20140;-86
2022/08/11 07:34:22;;;;;;;7.63;2.28;;;;;;;22.80;100.00;94855.56;5016048;28;20140;-87
2022/08/11 07:36:53;;;;;;;5.22;2.17;;;;;;;22.92;100.00;94852.09;5017143;28;20072;-86
2022/08/11 07:39:21;;;;;;;3.55;1.58;;;;;;;22.85;100.00;94846.56;5015541;28;20125;-86
2022/08/11 07:42:21;;;;;;;5.57;2.08;;;;;;;22.71;100.00;94849.53;5016110;28;20451;-86
2022/08/11 07:53:04;;;;;;;7.15;2.50;;;;;;;23.10;100.00;94846.56;5035306;28;20079;-86
2022/08/11 07:55:30;;;;;;;6.15;2.00;;;;;;;23.16;100.00;94850.53;5035246;28;20033;-86
2022/08/11 08:20:09;;;;;;;4.10;2.30;;;;;;;22.91;100.00;94839.09;5020586;28;20361;-88
2022/08/11 08:22:35;;;;;;;5.22;1.95;;;;;;;23.19;100.00;94836.50;5003340;28;20332;-87
2022/08/11 08:25:09;;;;;;;4.03;2.40;;;;;;;23.53;100.00;94833.66;5002807;28;20030;-88
2022/08/11 08:27:37;;;;;;;3.13;1.83;;;;;;;23.42;100.00;94836.06;5002851;28;20060;-88
2022/08/11 08:32:48;;;;;;;4.57;2.30;;;;;;;23.47;100.00;94833.13;5019279;28;20081;-87
2022/08/11 08:35:14;;;;;;;3.50;2.15;;;;;;;23.88;100.00;94840.34;5019023;28;20030;-86
2022/08/11 08:37:40;;;;;;;5.22;2.05;;;;;;;24.29;100.00;94825.00;5035305;28;20034;-87
2022/08/11 08:40:11;;;;;;;3.45;2.20;;;;;;;24.35;100.00;94825.53;5039834;28;20112;-88
2022/08/11 08:42:40;;;;;;;3.67;2.15;;;;;;;24.66;98.95;94824.75;5038694;28;20026;-88
2022/08/11 08:45:11;;;;;;;2.80;1.90;;;;;;;24.57;99.00;94832.19;5038639;28;20036;-87
2022/08/11 08:47:42;;;;;;;9.25;2.03;;;;;;;24.79;100.00;94828.16;5038636;28;20026;-87
2022/08/11 08:50:11;;;;;;;6.95;2.35;;;;;;;24.58;100.00;94831.06;5038616;28;20030;-89
2022/08/11 08:52:39;;;;;;;15.57;3.33;;;;;;;24.25;99.50;94827.59;5038137;28;20025;-88
2022/08/11 08:55:06;;;;;;;3.22;1.70;;;;;;;24.39;93.29;94832.53;5038521;28;20026;-87
2022/08/11 08:57:36;;;;;;;6.10;2.30;;;;;;;24.00;92.71;94821.56;5038473;28;20029;-88
2022/08/11 09:00:03;;;;;;;4.13;1.77;;;;;;;24.46;94.15;94821.22;5038132;28;20033;-88
2022/08/11 09:02:29;;;;;;;3.90;1.80;;;;;;;24.43;98.16;94824.56;5039447;28;20025;-87
2022/08/11 09:04:55;;;;;;;4.40;1.88;;;;;;;24.58;92.81;94817.66;5038265;28;20175;-87
2022/08/11 09:07:22;;;;;;;4.68;2.10;;;;;;;24.48;97.07;94823.53;5038298;28;20033;-88
2022/08/11 09:09:50;;;;;;;3.42;1.73;;;;;;;24.51;94.24;94817.47;5038257;28;20384;-88
2022/08/11 09:12:18;;;;;;;5.45;2.03;;;;;;;24.76;90.71;94825.34;5037942;28;20032;-88
2022/08/11 09:15:06;;;;;;;5.80;1.95;;;;;;;24.81;83.30;94825.88;5037745;28;20036;-89
2022/08/11 09:17:45;;;;;;;6.38;2.00;;;;;;;25.06;81.91;94819.53;5038359;28;20029;-85
2022/08/11 09:20:33;;;;;;;8.20;2.08;;;;;;;24.82;81.06;94824.00;5038611;28;20120;-87
2022/08/11 09:28:36;;;;;;;6.03;1.77;;;;;;;24.96;81.68;94808.25;5036047;28;20525;-88
2022/08/11 09:31:04;;;;;;;2.25;1.80;;;;;;;25.37;86.13;94826.72;5039004;28;20025;-87
2022/08/11 09:33:35;;;;;;;3.50;2.13;;;;;;;25.40;81.97;94812.59;5038720;28;20449;-90
2022/08/11 09:41:32;;;;;;;3.88;1.55;;;;;;;25.65;75.69;94822.31;5038914;28;20033;-90
2022/08/11 09:46:43;;;;;;;3.75;1.75;;;;;;;25.80;70.29;94818.00;5038782;28;20040;-87
2022/08/11 09:49:09;;;;;;;3.15;1.67;;;;;;;25.62;68.69;94814.97;5038671;28;20025;-85
2022/08/11 09:51:34;;;;;;;4.03;1.73;;;;;;;25.78;69.58;94810.28;5020881;28;20033;-86
2022/08/11 09:54:05;;;;;;;1.80;1.30;;;;;;;26.09;59.00;94810.47;5037099;28;20056;-86
2022/08/11 09:59:21;;;;;;;3.00;1.80;;;;;;;25.65;59.45;94807.00;5037458;28;20156;-87
2022/08/11 10:01:56;;;;;;;3.53;1.45;;;;;;;25.52;54.57;94797.53;5037359;28;20510;-88
2022/08/11 10:04:51;;;;;;;2.17;1.40;;;;;;;25.35;48.91;94804.84;5037213;28;20334;-86
2022/08/11 10:07:18;;;;;;;4.32;1.30;;;;;;;25.53;48.21;94794.47;5024337;28;20037;-87
2022/08/11 10:09:54;;;;;;;1.25;1.05;;;;;;;25.82;45.87;94795.06;5022335;28;20022;-87
2022/08/11 10:12:23;;;;;;;2.20;1.42;;;;;;;25.89;48.95;94804.38;5017258;28;20108;-90
2022/08/11 10:18:40;;;;;;;5.38;1.20;;;;;;;25.86;47.57;94800.47;5017013;28;20033;-85
2022/08/11 10:20:33;;;;;;;1.73;1.23;;;;;;;25.60;46.95;94803.81;5025751;28;20042;-85
2022/08/11 10:26:51;;;;;;;2.75;1.25;;;;;;;25.75;49.72;94786.88;5017210;28;20442;-85
2022/08/11 10:28:38;;;;;;;3.47;1.40;;;;;;;25.39;51.35;94788.81;5017251;28;20037;-86
2022/08/11 10:34:02;;;;;;;7.53;1.50;;;;;;;25.72;51.00;94790.25;5016071;28;20086;-88
2022/08/11 10:36:33;;;;;;;4.45;1.30;;;;;;;25.95;47.28;94789.50;5002530;28;20036;-88
2022/08/11 10:39:00;;;;;;;5.05;1.80;;;;;;;25.85;49.43;94776.69;5000609;28;20120;-87
2022/08/11 10:44:15;;;;;;;2.72;1.70;;;;;;;26.09;51.32;94781.72;5016792;28;20036;-86
2022/08/11 10:49:27;;;;;;;7.88;1.88;;;;;;;26.24;52.00;94771.25;5016873;28;20064;-86
2022/08/11 11:00:44;;;;;;;4.43;1.75;;;;;;;26.66;49.59;94772.28;5036261;28;20040;-86
2022/08/11 11:03:11;;;;;;;2.60;1.58;;;;;;;27.00;48.31;94766.25;5036071;28;20094;-87
2022/08/11 11:05:56;;;;;;;;;;;;;;;;;;;;;
2022/08/11 11:11:14;;;;;;;8.90;1.90;;;;;;;26.09;50.92;94765.59;5036178;28;20119;-87
2022/08/11 11:19:17;;;;;;;3.50;1.65;;;;;;;26.79;48.46;94754.03;5035784;28;20043;-86
2022/08/11 11:21:55;;;;;;;;;;;;;;;;;;;;;
2022/08/11 11:24:46;;;;;;;3.50;1.70;;;;;;;26.83;46.42;94757.56;5015527;28;20331;-87
2022/08/11 11:27:49;;;;;;;5.25;1.52;;;;;;;26.57;46.34;94761.00;5015765;28;20037;-87
2022/08/11 11:30:15;;;;;;;2.83;1.60;;;;;;;26.98;46.35;94747.81;5015913;28;20029;-86
2022/08/11 11:32:58;;;;;;;2.10;1.38;;;;;;;26.70;46.84;94745.47;5015385;28;20432;-85
2022/08/11 11:35:44;;;;;;;1.85;1.35;;;;;;;27.27;44.26;94748.16;5015756;28;20033;-90
2022/08/11 11:49:53;;;;;;;2.88;1.50;;;;;;;28.25;41.71;94753.81;5019728;28;20171;-88
2022/08/11 11:52:20;;;;;;;1.17;1.08;;;;;;;28.46;42.73;94745.91;5022432;28;20056;-89
2022/08/11 11:54:49;;;;;;;1.95;1.30;;;;;;;28.93;41.59;94748.94;5022295;28;20048;-89
2022/08/11 12:02:44;;;;;;;4.68;1.25;;;;;;;28.57;40.48;94743.28;5022135;28;20363;-89
2022/08/11 12:05:10;;;;;;;2.38;1.10;;;;;;;28.66;39.32;94745.66;5022440;28;20038;-90
2022/08/11 12:10:31;;;;;;;4.05;1.15;;;;;;;28.24;40.17;94726.09;5026397;28;20350;-89
2022/08/11 12:15:46;;;;;;;1.88;1.40;;;;;;;27.30;41.55;94725.16;5042226;28;20083;-88
2022/08/11 12:18:18;;;;;;;4.65;1.40;;;;;;;27.72;39.58;94721.41;5041585;28;20493;-88
2022/08/11 12:20:44;;;;;;;2.60;1.27;;;;;;;28.20;40.32;94720.72;5023778;28;20040;-89
2022/08/11 12:28:41;;;;;;;3.38;1.38;;;;;;;28.70;40.46;94707.97;5022359;28;20092;-91
2022/08/11 12:31:14;;;;;;;1.42;1.08;;;;;;;28.57;40.59;94713.66;5021821;28;20033;-87
2022/08/11 12:34:28;;;;;;;;;;;;;;;;;;;;;
2022/08/11 12:37:59;;;;;;;;;;;;;;;;;;;;;
2022/08/11 12:46:52;;;;;;;6.50;1.52;;;;;;;27.14;41.08;94703.81;5021812;28;20029;-86
2022/08/11 12:52:07;;;;;;;2.80;1.60;;;;;;;26.93;42.59;94689.75;5022038;28;20045;-86
2022/08/11 12:55:19;;;;;;;;;;;;;;;;;;;;;
2022/08/11 13:06:27;;;;;;;1.52;1.30;;;;;;;26.08;43.77;94688.13;5018788;28;20057;-89
2022/08/11 13:09:02;;;;;;;3.45;1.60;;;;;;;26.32;43.71;94681.59;5018556;28;20018;-87
2022/08/11 13:14:20;;;;;;;3.55;1.40;;;;;;;27.46;41.24;94676.50;5017884;28;20080;-90
2022/08/11 13:19:41;;;;;;;2.47;1.50;;;;;;;27.86;41.65;94669.59;5032566;28;20104;-87
2022/08/11 13:22:13;;;;;;;3.60;1.63;;;;;;;28.12;40.51;94659.03;5002490;28;20124;-89
2022/08/11 13:24:58;;;;;;;2.25;1.50;;;;;;;28.86;41.09;94654.53;5017895;28;20030;-87
2022/08/11 13:27:26;;;;;;;5.60;1.23;;;;;;;28.32;39.42;94646.91;5018000;28;20041;-87
2022/08/11 13:33:16;;;;;;;4.10;1.40;;;;;;;28.51;39.34;94639.69;5023568;28;20091;-92
2022/08/11 13:35:48;;;;;;;1.30;1.02;;;;;;;27.72;40.35;94643.34;5018983;28;20118;-90
2022/08/11 13:38:42;;;;;;;;;;;;;;;;;;;;;
2022/08/11 13:42:09;;;;;;;3.97;1.25;;;;;;;27.13;43.34;94637.72;5023718;28;20461;-87
2022/08/11 13:45:00;;;;;;;1.50;1.20;;;;;;;28.02;40.44;94636.25;5016228;28;20034;-89
2022/08/11 13:47:37;;;;;;;1.90;1.30;;;;;;;28.56;39.36;94627.78;5017663;28;20029;-88
2022/08/11 13:50:04;;;;;;;3.85;1.30;;;;;;;28.87;39.44;94623.72;5017655;28;20050;-89
2022/08/11 13:52:33;;;;;;;3.78;1.30;;;;;;;29.66;38.03;94618.91;5017862;28;20343;-88
2022/08/11 13:54:58;;;;;;;3.50;1.50;;;;;;;30.05;37.30;94623.53;5018010;28;20034;-87
2022/08/11 13:57:26;;;;;;;5.03;1.30;;;;;;;29.96;37.99;94615.81;5017935;28;20490;-86
2022/08/11 13:59:53;;;;;;;3.25;1.35;;;;;;;29.71;36.98;94619.28;5017126;28;20038;-87
2022/08/11 14:02:25;;;;;;;3.85;1.55;;;;;;;29.47;36.25;94620.78;5017395;28;20071;-86
2022/08/11 14:04:56;;;;;;;3.08;1.20;;;;;;;28.95;37.55;94615.63;5016920;28;20033;-88
2022/08/11 14:07:24;;;;;;;2.40;1.25;;;;;;;28.00;38.61;94612.41;5000761;28;20030;-86
2022/08/11 14:09:57;;;;;;;3.42;1.30;;;;;;;29.49;36.03;94607.72;5018438;28;20037;-88
2022/08/11 14:15:48;;;;;;;4.00;1.40;;;;;;;29.31;37.33;94604.97;5017436;28;20076;-87
2022/08/11 14:19:06;;;;;;;;;;;;;;;;;;;;;
2022/08/11 14:22:12;;;;;;;2.10;1.27;;;;;;;30.14;35.44;94612.38;5013203;28;20034;-89
2022/08/11 14:24:40;;;;;;;2.78;1.50;;;;;;;28.72;37.08;94606.66;5021553;28;20065;-89
2022/08/11 14:27:17;;;;;;;3.88;1.20;;;;;;;28.60;38.05;94613.16;5036505;28;20029;-87
2022/08/11 14:32:42;;;;;;;9.02;1.20;;;;;;;31.42;33.96;94599.91;5025965;28;20033;-87
2022/08/11 14:38:44;;;;;;;;;;;;;;;;;;;;;
2022/08/11 14:47:40;;;;;;;;;;;;;;;;;;;;;
2022/08/11 14:50:17;;;;;;;7.65;1.15;;;;;;;35.86;28.06;94573.03;5032108;28;20041;-87
2022/08/11 14:52:50;;;;;;;3.03;1.20;;;;;;;34.14;29.57;94577.75;5020007;28;20079;-87
2022/08/11 14:58:06;;;;;;;4.53;1.40;;;;;;;30.73;32.87;94570.53;5028162;28;20408;-86
2022/08/11 15:00:38;;;;;;;3.50;1.30;;;;;;;29.48;35.48;94571.84;5020152;28;20424;-88
2022/08/11 15:03:12;;;;;;;2.00;1.10;;;;;;;30.20;35.29;94567.56;5035687;28;20108;-87
2022/08/11 15:05:55;;;;;;;2.30;1.05;;;;;;;32.56;32.89;94568.75;5036286;28;20502;-86
2022/08/11 15:08:53;;;;;;;1.87;1.00;;;;;;;32.61;31.03;94565.56;5037103;28;20390;-86
2022/08/11 15:25:56;;;;;;;2.17;1.10;;;;;;;35.52;26.24;94567.59;5036990;28;20047;-87
2022/08/11 15:37:34;;;;;;;2.67;1.20;;;;;;;32.52;29.28;94557.19;5036640;28;20125;-90
2022/08/11 15:48:32;;;;;;;3.95;1.08;;;;;;;33.88;27.95;94557.63;5012927;28;20048;-87
2022/08/11 15:51:37;;;;;;;1.83;0.93;;;;;;;32.90;28.54;94559.81;5036454;28;20490;-88
2022/08/11 15:54:11;;;;;;;2.92;1.23;;;;;;;35.61;26.76;94561.56;5029982;28;20435;-87
2022/08/11 15:56:40;;;;;;;1.88;1.10;;;;;;;36.24;25.53;94550.69;5035597;28;20022;-87
2022/08/11 16:05:09;;;;;;;1.63;0.95;;;;;;;34.21;26.65;94552.38;5035569;28;20033;-87
2022/08/11 16:10:47;;;;;;;;;;;;;;;;;;;;;
2022/08/11 16:16:15;;;;;;;1.50;0.80;;;;;;;35.83;25.58;94547.41;5035166;28;20079;-87
2022/08/11 16:18:42;;;;;;;1.67;0.98;;;;;;;34.61;27.71;94541.53;5008711;28;20049;-87
2022/08/11 16:21:14;;;;;;;3.85;0.85;;;;;;;35.79;25.69;94544.00;5036233;28;20029;-86
2022/08/11 16:23:43;;;;;;;2.60;1.10;;;;;;;32.83;28.24;94535.47;5019259;28;20623;-86
2022/08/11 16:26:14;;;;;;;2.33;1.02;;;;;;;35.65;25.70;94537.72;5018811;28;20032;-87
2022/08/11 16:28:40;;;;;;;1.75;1.00;;;;;;;34.50;26.80;94524.63;5035334;28;20026;-87
2022/08/11 16:31:09;;;;;;;5.32;1.00;;;;;;;33.54;27.26;94543.03;5037590;28;20025;-88
2022/08/11 16:33:36;;;;;;;2.15;0.90;;;;;;;30.98;30.50;94537.16;5025771;28;20071;-86
2022/08/11 16:38:48;;;;;;;1.52;0.90;;;;;;;33.38;27.71;94530.06;5019229;28;20095;-87
2022/08/11 16:46:58;;;;;;;1.15;0.98;;;;;;;36.40;25.35;94533.47;5018824;28;20025;-87
2022/08/11 16:46:58;;;;;;;1.02;0.90;;;;;;;36.33;25.05;94528.22;5020202;28;20076;-87
2022/08/11 16:49:37;;;;;;;2.60;1.25;;;;;;;35.33;25.94;94520.19;5004272;28;20077;-87
2022/08/11 16:52:06;;;;;;;1.65;1.00;;;;;;;33.16;28.08;94527.69;5019156;28;20025;-87
2022/08/11 16:54:33;;;;;;;2.95;1.17;;;;;;;33.14;28.24;94530.81;5018693;28;20025;-86
2022/08/11 16:59:57;;;;;;;2.53;1.10;;;;;;;33.24;27.97;94520.97;5026206;28;20029;-87
2022/08/11 17:13:59;;;;;;;2.40;1.10;;;;;;;30.56;30.55;94518.03;5018381;28;20136;-88
2022/08/11 17:16:34;;;;;;;2.25;1.40;;;;;;;28.91;33.22;94513.19;5002056;28;20084;-86
2022/08/11 17:19:23;;;;;;;5.13;1.30;;;;;;;28.52;34.19;94519.97;5002121;28;20331;-86
2022/08/11 17:24:39;;;;;;;2.47;1.20;;;;;;;27.31;36.58;94511.50;5018446;28;20053;-85
2022/08/11 17:27:07;;;;;;;4.47;1.35;;;;;;;26.78;36.90;94508.72;5001900;28;20026;-86
2022/08/11 17:29:45;;;;;;;3.35;1.00;;;;;;;26.65;37.20;94508.19;5017829;28;20056;-86
2022/08/11 17:37:48;;;;;;;2.92;1.40;;;;;;;25.14;41.22;94510.28;5019333;28;20343;-88
2022/08/11 17:40:16;;;;;;;1.38;1.23;;;;;;;24.99;42.64;94510.06;5018243;28;20442;-87
2022/08/11 17:48:26;;;;;;;1.77;1.50;;;;;;;24.95;43.40;94521.84;5018098;28;20057;-87
2022/08/11 17:50:54;;;;;;;2.72;1.25;;;;;;;24.79;42.57;94516.56;5003424;28;20026;-88
2022/08/11 18:04:58;;;;;;;2.25;1.50;;;;;;;24.24;42.88;94514.72;5018362;28;20077;-88
